Time;durP1;ratioP1;P1;durP2;ratioP2;P2;SDS_P1;SDS_P2;PMS_P1;PMS_P2;Temp;Humidity;BMP_temperature;BMP_pressure;BME280_temperature;BME280_humidity;BME280_pressure;Samples;Min_cycle;Max_cycle;Signal;HPM_P1;HPM_P2
2022/01/09 00:00:12;;;;;;;44.42;15.98;;;;;;;;;;6272412;22;20000;-64
2022/01/09 00:02:39;;;;;;;9.93;6.80;;;;;;;;;;6274648;22;19999;-63
2022/01/09 00:05:06;;;;;;;9.82;3.97;;;;;;;;;;6273106;22;20003;-64
2022/01/09 00:07:32;;;;;;;8.52;3.40;;;;;;;;;;6273512;22;20035;-63
2022/01/09 00:09:58;;;;;;;9.35;3.47;;;;;;;;;;6272935;22;19996;-64
2022/01/09 00:12:25;;;;;;;7.65;3.10;;;;;;;;;;6273173;22;20598;-64
2022/01/09 00:14:51;;;;;;;11.20;3.83;;;;;;;;;;6272739;22;20045;-63
2022/01/09 00:17:18;;;;;;;6.78;3.20;;;;;;;;;;6271128;22;20064;-65
2022/01/09 00:19:44;;;;;;;8.07;3.35;;;;;;;;;;6273467;22;20000;-62
2022/01/09 00:22:10;;;;;;;9.43;3.70;;;;;;;;;;6272863;22;20008;-65
2022/01/09 00:24:36;;;;;;;13.52;4.13;;;;;;;;;;6273467;22;20053;-64
2022/01/09 00:27:02;;;;;;;6.80;3.20;;;;;;;;;;6272902;22;20000;-62
2022/01/09 00:29:28;;;;;;;8.02;3.75;;;;;;;;;;6273509;22;20015;-64
2022/01/09 00:31:58;;;;;;;11.23;3.67;;;;;;;;;;6273150;22;19996;-62
2022/01/09 00:34:24;;;;;;;8.73;3.53;;;;;;;;;;6272606;22;20468;-64
2022/01/09 00:36:50;;;;;;;7.32;3.45;;;;;;;;;;6272847;22;20007;-61
2022/01/09 00:39:16;;;;;;;7.70;3.58;;;;;;;;;;6273120;22;20010;-63
2022/01/09 00:41:42;;;;;;;13.20;3.95;;;;;;;;;;6275539;22;20430;-64
2022/01/09 00:44:08;;;;;;;9.68;3.38;;;;;;;;;;6272617;22;20058;-64
2022/01/09 00:46:35;;;;;;;8.43;3.88;;;;;;;;;;6272422;22;20079;-64
2022/01/09 00:49:04;;;;;;;11.45;3.22;;;;;;;;;;6272434;22;19999;-64
2022/01/09 00:51:30;;;;;;;14.75;3.22;;;;;;;;;;6272591;22;20418;-65
2022/01/09 00:53:56;;;;;;;9.35;4.00;;;;;;;;;;6272568;22;20071;-63
2022/01/09 00:56:22;;;;;;;10.75;3.00;;;;;;;;;;6272397;22;20630;-63
2022/01/09 00:58:49;;;;;;;10.82;3.03;;;;;;;;;;6271770;22;20448;-65
2022/01/09 01:01:15;;;;;;;8.93;3.75;;;;;;;;;;6271432;22;20011;-63
2022/01/09 01:03:41;;;;;;;7.05;3.10;;;;;;;;;;6270810;22;20061;-64
2022/01/09 01:06:07;;;;;;;14.13;2.92;;;;;;;;;;6272324;22;20000;-62
2022/01/09 01:08:33;;;;;;;5.38;2.80;;;;;;;;;;6272242;22;20078;-64
2022/01/09 01:10:59;;;;;;;11.63;3.00;;;;;;;;;;6272238;22;20484;-63
2022/01/09 01:13:25;;;;;;;8.15;3.03;;;;;;;;;;6273277;22;20004;-65
2022/01/09 01:15:51;;;;;;;9.75;3.15;;;;;;;;;;6272758;22;20061;-64
2022/01/09 01:18:17;;;;;;;6.40;2.70;;;;;;;;;;6271712;22;20011;-64
2022/01/09 01:20:43;;;;;;;8.88;3.33;;;;;;;;;;6273138;22;20061;-63
2022/01/09 01:23:10;;;;;;;6.72;3.40;;;;;;;;;;6270757;22;20004;-63
2022/01/09 01:25:36;;;;;;;8.98;3.03;;;;;;;;;;6273819;22;20003;-64
2022/01/09 01:28:02;;;;;;;6.53;2.80;;;;;;;;;;6271392;22;20095;-63
2022/01/09 01:30:28;;;;;;;10.25;3.70;;;;;;;;;;6273203;22;20000;-63
2022/01/09 01:32:55;;;;;;;7.25;3.20;;;;;;;;;;6272185;22;20031;-63
2022/01/09 01:35:21;;;;;;;5.00;2.75;;;;;;;;;;6274890;22;19999;-63
2022/01/09 01:37:47;;;;;;;7.45;2.38;;;;;;;;;;6272050;22;20438;-64
2022/01/09 01:40:15;;;;;;;7.75;3.58;;;;;;;;;;6272695;22;19996;-63
2022/01/09 01:42:41;;;;;;;12.30;2.70;;;;;;;;;;6271786;22;19999;-64
2022/01/09 01:45:07;;;;;;;9.02;2.80;;;;;;;;;;6272092;22;20035;-63
2022/01/09 01:47:33;;;;;;;10.55;2.95;;;;;;;;;;6271433;22;20374;-63
2022/01/09 01:49:59;;;;;;;11.00;2.92;;;;;;;;;;6272790;22;20000;-65
2022/01/09 01:52:37;;;;;;;7.97;2.20;;;;;;;;;;6271411;22;20003;-64
2022/01/09 01:55:05;;;;;;;4.88;2.47;;;;;;;;;;6272535;22;20045;-64
2022/01/09 01:57:32;;;;;;;8.48;2.80;;;;;;;;;;6272002;22;20100;-63
2022/01/09 01:59:58;;;;;;;5.07;2.30;;;;;;;;;;6271260;22;20008;-64
2022/01/09 02:02:25;;;;;;;6.57;2.60;;;;;;;;;;6271802;22;20000;-63
2022/01/09 02:04:52;;;;;;;10.48;2.85;;;;;;;;;;6273562;22;20057;-63
2022/01/09 02:07:18;;;;;;;5.22;2.38;;;;;;;;;;6270903;22;19999;-63
2022/01/09 02:09:44;;;;;;;8.05;2.50;;;;;;;;;;6271689;22;20423;-63
2022/01/09 02:12:11;;;;;;;6.70;3.08;;;;;;;;;;6272611;22;20095;-62
2022/01/09 02:14:38;;;;;;;11.75;3.13;;;;;;;;;;6272032;22;20068;-63
2022/01/09 02:17:06;;;;;;;7.57;2.75;;;;;;;;;;6270149;22;20008;-63
2022/01/09 02:19:32;;;;;;;4.70;2.75;;;;;;;;;;6271526;22;20006;-63
2022/01/09 02:21:59;;;;;;;10.10;3.65;;;;;;;;;;6272053;22;20003;-63
2022/01/09 02:24:26;;;;;;;7.40;2.88;;;;;;;;;;6272068;22;20004;-63
2022/01/09 02:26:52;;;;;;;10.73;3.15;;;;;;;;;;6272646;22;20004;-64
2022/01/09 02:29:19;;;;;;;8.55;3.85;;;;;;;;;;6271382;22;20333;-62
2022/01/09 02:31:45;;;;;;;7.22;3.40;;;;;;;;;;6272327;22;20019;-64
2022/01/09 02:34:12;;;;;;;5.00;2.60;;;;;;;;;;6271228;22;20000;-62
2022/01/09 02:36:39;;;;;;;9.90;2.55;;;;;;;;;;6269953;22;20338;-63
2022/01/09 02:39:05;;;;;;;9.18;2.63;;;;;;;;;;6270988;22;20043;-64
2022/01/09 02:41:31;;;;;;;5.72;3.10;;;;;;;;;;6271623;22;20008;-63
2022/01/09 02:43:57;;;;;;;7.30;2.40;;;;;;;;;;6270057;22;20000;-64
2022/01/09 02:46:37;;;;;;;10.20;2.28;;;;;;;;;;6271698;22;20006;-65
2022/01/09 02:49:05;;;;;;;7.28;2.83;;;;;;;;;;6271427;22;20030;-63
2022/01/09 02:51:31;;;;;;;8.23;2.83;;;;;;;;;;6271041;22;20004;-63
2022/01/09 02:55:03;;;;;;;5.90;2.58;;;;;;;;;;6271084;22;20354;-65
2022/01/09 02:56:43;;;;;;;7.32;2.40;;;;;;;;;;6271755;22;20007;-64
2022/01/09 02:59:09;;;;;;;8.25;2.90;;;;;;;;;;6269927;22;20528;-64
2022/01/09 03:01:38;;;;;;;7.53;2.42;;;;;;;;;;6275360;22;20091;-63
2022/01/09 03:04:05;;;;;;;5.07;2.35;;;;;;;;;;6272927;22;20453;-64
2022/01/09 03:06:31;;;;;;;8.18;2.80;;;;;;;;;;6274495;22;20042;-63
2022/01/09 03:09:00;;;;;;;8.70;2.47;;;;;;;;;;6274494;22;20011;-63
2022/01/09 03:11:28;;;;;;;3.50;2.05;;;;;;;;;;6276164;22;20329;-65
2022/01/09 03:13:54;;;;;;;11.13;3.40;;;;;;;;;;6273259;22;20389;-64
2022/01/09 03:16:20;;;;;;;5.63;2.40;;;;;;;;;;6272709;22;20015;-63
2022/01/09 03:18:46;;;;;;;10.98;2.95;;;;;;;;;;6273688;22;20012;-63
2022/01/09 03:21:12;;;;;;;6.28;2.35;;;;;;;;;;6272720;22;20462;-63
2022/01/09 03:23:38;;;;;;;7.75;2.53;;;;;;;;;;6274674;22;20027;-62
2022/01/09 03:26:07;;;;;;;13.63;2.33;;;;;;;;;;6273584;22;20368;-63
2022/01/09 03:28:33;;;;;;;7.40;2.13;;;;;;;;;;6274689;22;20023;-63
2022/01/09 03:30:59;;;;;;;5.25;2.42;;;;;;;;;;6272010;22;20376;-62
2022/01/09 03:33:25;;;;;;;8.90;2.35;;;;;;;;;;6272739;22;20004;-63
2022/01/09 03:35:54;;;;;;;10.05;2.53;;;;;;;;;;6273819;22;20007;-62
2022/01/09 03:38:20;;;;;;;7.45;2.63;;;;;;;;;;6274288;22;20066;-63
2022/01/09 03:40:47;;;;;;;7.80;2.28;;;;;;;;;;6271338;22;20082;-62
2022/01/09 03:43:13;;;;;;;4.97;2.42;;;;;;;;;;6272156;22;20091;-62
2022/01/09 03:45:39;;;;;;;9.95;3.20;;;;;;;;;;6270946;22;20338;-63
2022/01/09 03:48:05;;;;;;;9.00;2.47;;;;;;;;;;6272990;22;20000;-64
2022/01/09 03:50:32;;;;;;;8.50;2.97;;;;;;;;;;6273782;22;20769;-63
2022/01/09 03:52:59;;;;;;;5.22;2.13;;;;;;;;;;6273736;22;20027;-63
2022/01/09 03:55:25;;;;;;;8.07;2.47;;;;;;;;;;6273023;22;20096;-63
2022/01/09 03:57:51;;;;;;;10.45;2.63;;;;;;;;;;6272374;22;20015;-63
2022/01/09 04:00:22;;;;;;;8.68;2.88;;;;;;;;;;6273224;22;20007;-64
2022/01/09 04:02:49;;;;;;;8.35;2.63;;;;;;;;;;6274163;22;20006;-63
2022/01/09 04:05:16;;;;;;;6.43;2.40;;;;;;;;;;6276429;22;19996;-65
2022/01/09 04:07:42;;;;;;;6.75;2.28;;;;;;;;;;6275977;22;20003;-65
2022/01/09 04:10:08;;;;;;;7.63;2.40;;;;;;;;;;6274668;22;20011;-63
2022/01/09 04:12:37;;;;;;;8.18;2.08;;;;;;;;;;6274082;22;20299;-63
2022/01/09 04:15:07;;;;;;;8.95;2.75;;;;;;;;;;6273286;22;20102;-63
2022/01/09 04:17:43;;;;;;;6.50;2.17;;;;;;;;;;6272348;22;20030;-63
2022/01/09 04:20:09;;;;;;;5.18;2.10;;;;;;;;;;6273875;22;20516;-63
2022/01/09 04:22:35;;;;;;;12.00;2.78;;;;;;;;;;6272346;22;20030;-63
2022/01/09 04:25:01;;;;;;;9.43;2.70;;;;;;;;;;6273298;22;20000;-63
2022/01/09 04:27:27;;;;;;;9.52;2.25;;;;;;;;;;6274528;22;20015;-66
2022/01/09 04:29:53;;;;;;;9.90;2.60;;;;;;;;;;6273927;22;20004;-64
2022/01/09 04:32:20;;;;;;;7.65;2.58;;;;;;;;;;6273646;22;20111;-65
2022/01/09 04:34:46;;;;;;;5.38;2.20;;;;;;;;;;6272691;22;20118;-63
2022/01/09 04:37:12;;;;;;;6.43;2.67;;;;;;;;;;6271846;22;19999;-65
2022/01/09 04:39:38;;;;;;;7.15;2.80;;;;;;;;;;6271414;22;20066;-64
2022/01/09 04:42:04;;;;;;;9.55;2.58;;;;;;;;;;6274255;22;20038;-64
2022/01/09 04:44:30;;;;;;;6.78;2.20;;;;;;;;;;6272435;22;20004;-63
2022/01/09 04:47:04;;;;;;;7.20;2.58;;;;;;;;;;6273204;22;20438;-63
2022/01/09 04:49:37;;;;;;;5.53;2.40;;;;;;;;;;6271425;22;20023;-63
2022/01/09 04:52:05;;;;;;;8.25;2.78;;;;;;;;;;6273552;22;20003;-64
2022/01/09 04:54:31;;;;;;;7.22;2.53;;;;;;;;;;6272979;22;20060;-64
2022/01/09 04:56:57;;;;;;;6.70;2.50;;;;;;;;;;6272989;22;20007;-63
2022/01/09 04:59:23;;;;;;;13.57;2.83;;;;;;;;;;6271572;22;20004;-65
2022/01/09 05:01:49;;;;;;;5.78;2.33;;;;;;;;;;6272687;22;20079;-64
2022/01/09 05:04:15;;;;;;;7.28;2.50;;;;;;;;;;6270283;22;20049;-63
2022/01/09 05:06:41;;;;;;;7.47;2.40;;;;;;;;;;6272493;22;20091;-63
2022/01/09 05:09:09;;;;;;;11.10;2.47;;;;;;;;;;6272996;22;20057;-63
2022/01/09 05:11:35;;;;;;;3.83;1.98;;;;;;;;;;6272453;22;20090;-63
2022/01/09 05:14:01;;;;;;;9.68;3.42;;;;;;;;;;6272589;22;19996;-63
2022/01/09 05:16:27;;;;;;;11.15;3.03;;;;;;;;;;6272510;22;20014;-64
2022/01/09 05:18:59;;;;;;;8.50;2.75;;;;;;;;;;6273057;22;20423;-63
2022/01/09 05:21:25;;;;;;;10.25;2.72;;;;;;;;;;6271271;22;20008;-66
2022/01/09 05:23:51;;;;;;;12.38;3.28;;;;;;;;;;6272151;22;20007;-63
2022/01/09 05:26:17;;;;;;;7.03;2.63;;;;;;;;;;6271152;22;20000;-64
2022/01/09 05:28:43;;;;;;;15.10;3.85;;;;;;;;;;6272741;22;20027;-64
2022/01/09 05:31:09;;;;;;;9.23;3.17;;;;;;;;;;6271635;22;20002;-65
2022/01/09 05:33:35;;;;;;;9.07;2.75;;;;;;;;;;6272894;22;20605;-63
2022/01/09 05:36:02;;;;;;;8.32;2.33;;;;;;;;;;6271111;22;20006;-64
2022/01/09 05:38:28;;;;;;;12.02;2.67;;;;;;;;;;6271720;22;20457;-64
2022/01/09 05:40:54;;;;;;;12.45;2.90;;;;;;;;;;6271186;22;20008;-64
2022/01/09 05:43:20;;;;;;;9.77;2.63;;;;;;;;;;6273053;22;20000;-63
2022/01/09 05:45:46;;;;;;;10.85;3.72;;;;;;;;;;6271278;22;20064;-63
2022/01/09 05:48:12;;;;;;;10.70;3.13;;;;;;;;;;6272796;22;20074;-63
2022/01/09 05:50:38;;;;;;;15.18;2.70;;;;;;;;;;6271668;22;20613;-63
2022/01/09 05:53:04;;;;;;;9.98;2.92;;;;;;;;;;6272685;22;20000;-63
2022/01/09 05:55:30;;;;;;;8.80;2.80;;;;;;;;;;6271894;22;20000;-64
2022/01/09 05:57:57;;;;;;;11.10;2.75;;;;;;;;;;6272951;22;20008;-64
2022/01/09 06:00:23;;;;;;;12.45;3.00;;;;;;;;;;6271496;22;20000;-63
2022/01/09 06:02:49;;;;;;;34.45;4.68;;;;;;;;;;6273396;22;20073;-63
2022/01/09 06:05:15;;;;;;;16.58;3.45;;;;;;;;;;6272585;22;20276;-64
2022/01/09 06:07:42;;;;;;;9.45;3.40;;;;;;;;;;6273374;22;20316;-61
2022/01/09 06:10:09;;;;;;;9.15;2.60;;;;;;;;;;6270533;22;20062;-64
2022/01/09 06:12:36;;;;;;;8.70;2.28;;;;;;;;;;6272612;22;20419;-64
2022/01/09 06:15:02;;;;;;;4.75;2.50;;;;;;;;;;6272170;22;20494;-69
2022/01/09 06:17:28;;;;;;;7.82;3.00;;;;;;;;;;6271873;22;20004;-66
2022/01/09 06:19:54;;;;;;;10.82;3.13;;;;;;;;;;6272390;22;20006;-62
2022/01/09 06:22:21;;;;;;;7.53;2.70;;;;;;;;;;6273831;22;20513;-63
2022/01/09 06:24:50;;;;;;;9.27;2.88;;;;;;;;;;6273577;22;20384;-63
2022/01/09 06:27:16;;;;;;;8.50;3.03;;;;;;;;;;6272791;22;20008;-63
2022/01/09 06:29:42;;;;;;;13.98;4.25;;;;;;;;;;6272436;22;20312;-63
2022/01/09 06:32:09;;;;;;;10.32;2.78;;;;;;;;;;6272752;22;19996;-62
2022/01/09 06:34:35;;;;;;;13.43;3.35;;;;;;;;;;6274241;22;20026;-64
2022/01/09 06:37:01;;;;;;;6.45;2.70;;;;;;;;;;6273499;22;20004;-63
2022/01/09 06:39:27;;;;;;;10.98;2.90;;;;;;;;;;6274159;22;20027;-64
2022/01/09 06:41:53;;;;;;;9.77;2.63;;;;;;;;;;6273837;22;20054;-64
2022/01/09 06:44:19;;;;;;;10.25;2.60;;;;;;;;;;6274250;22;20000;-63
2022/01/09 06:46:45;;;;;;;12.15;3.00;;;;;;;;;;6274082;22;20008;-63
2022/01/09 06:49:12;;;;;;;10.52;2.90;;;;;;;;;;6274321;22;20000;-63
2022/01/09 06:51:38;;;;;;;4.38;2.90;;;;;;;;;;6273329;22;20014;-64
2022/01/09 06:54:04;;;;;;;17.08;3.40;;;;;;;;;;6274779;22;19999;-65
2022/01/09 06:56:30;;;;;;;9.15;2.88;;;;;;;;;;6274565;22;20007;-63
2022/01/09 06:58:56;;;;;;;11.85;2.90;;;;;;;;;;6273851;22;20334;-64
2022/01/09 07:01:22;;;;;;;11.05;3.13;;;;;;;;;;6273074;22;20054;-63
2022/01/09 07:03:48;;;;;;;4.95;2.58;;;;;;;;;;6273345;22;20008;-63
2022/01/09 07:06:14;;;;;;;9.40;3.05;;;;;;;;;;6275266;22;20456;-65
2022/01/09 07:08:40;;;;;;;8.02;3.38;;;;;;;;;;6276332;22;20026;-64
2022/01/09 07:11:06;;;;;;;8.05;2.67;;;;;;;;;;6279913;22;20007;-65
2022/01/09 07:13:33;;;;;;;8.13;3.13;;;;;;;;;;6275949;22;20007;-67
2022/01/09 07:15:59;;;;;;;10.27;3.22;;;;;;;;;;6274474;22;20006;-64
2022/01/09 07:18:25;;;;;;;8.57;2.78;;;;;;;;;;6274571;22;20062;-63
2022/01/09 07:20:52;;;;;;;8.80;2.38;;;;;;;;;;6274109;22;20007;-63
2022/01/09 07:23:18;;;;;;;12.13;2.83;;;;;;;;;;6272783;22;20434;-63
2022/01/09 07:25:44;;;;;;;8.68;3.05;;;;;;;;;;6273907;22;20081;-64
2022/01/09 07:28:10;;;;;;;11.45;3.80;;;;;;;;;;6273133;22;20014;-63
2022/01/09 07:30:36;;;;;;;9.85;3.38;;;;;;;;;;6273513;22;20000;-63
2022/01/09 07:33:04;;;;;;;10.98;3.22;;;;;;;;;;6273726;22;20075;-64
2022/01/09 07:35:31;;;;;;;14.57;3.33;;;;;;;;;;6274981;22;20078;-64
2022/01/09 07:37:57;;;;;;;13.30;3.75;;;;;;;;;;6273537;22;20007;-63
2022/01/09 07:40:23;;;;;;;7.68;2.63;;;;;;;;;;6272104;22;20068;-64
2022/01/09 07:42:50;;;;;;;12.82;3.20;;;;;;;;;;6274082;22;20004;-64
2022/01/09 07:45:19;;;;;;;12.73;3.17;;;;;;;;;;6273076;22;20015;-63
2022/01/09 07:47:45;;;;;;;8.45;2.42;;;;;;;;;;6272534;22;20060;-63
2022/01/09 07:50:14;;;;;;;10.18;3.30;;;;;;;;;;6274205;22;20023;-63
2022/01/09 07:52:40;;;;;;;11.05;2.97;;;;;;;;;;6272995;22;20732;-63
2022/01/09 07:55:07;;;;;;;10.00;3.25;;;;;;;;;;6273912;22;20046;-64
2022/01/09 07:57:33;;;;;;;14.43;2.97;;;;;;;;;;6273169;22;20011;-64
2022/01/09 08:00:03;;;;;;;8.75;3.70;;;;;;;;;;6274600;22;20146;-63
2022/01/09 08:02:29;;;;;;;8.23;2.80;;;;;;;;;;6272827;22;20004;-63
2022/01/09 08:04:55;;;;;;;6.88;2.70;;;;;;;;;;6273578;22;20099;-63
2022/01/09 08:07:21;;;;;;;8.60;2.75;;;;;;;;;;6272436;22;20057;-64
2022/01/09 08:09:47;;;;;;;12.32;2.88;;;;;;;;;;6273478;22;20003;-64
2022/01/09 08:12:16;;;;;;;12.45;3.20;;;;;;;;;;6273904;22;20486;-65
2022/01/09 08:14:43;;;;;;;8.45;2.97;;;;;;;;;;6273028;22;19996;-63
2022/01/09 08:17:09;;;;;;;15.40;4.15;;;;;;;;;;6273686;22;19999;-66
2022/01/09 08:19:35;;;;;;;7.50;2.85;;;;;;;;;;6278164;22;20421;-65
2022/01/09 08:22:05;;;;;;;8.60;2.63;;;;;;;;;;6277078;22;20003;-63
2022/01/09 08:24:31;;;;;;;11.13;2.67;;;;;;;;;;6273888;22;20004;-62
2022/01/09 08:26:57;;;;;;;8.20;3.13;;;;;;;;;;6272583;22;20434;-63
2022/01/09 08:29:23;;;;;;;12.38;2.92;;;;;;;;;;6271715;22;20011;-68
2022/01/09 08:31:50;;;;;;;11.10;3.00;;;;;;;;;;6270438;22;19996;-64
2022/01/09 08:34:16;;;;;;;8.85;2.83;;;;;;;;;;6271528;22;20100;-63
2022/01/09 08:36:42;;;;;;;12.20;2.38;;;;;;;;;;6270162;22;20061;-62
2022/01/09 08:39:10;;;;;;;11.82;2.53;;;;;;;;;;6272391;22;20359;-65
2022/01/09 08:41:36;;;;;;;5.97;2.72;;;;;;;;;;6271249;22;20077;-64
2022/01/09 08:44:04;;;;;;;5.35;3.13;;;;;;;;;;6271379;22;20011;-63
2022/01/09 08:46:30;;;;;;;5.75;3.00;;;;;;;;;;6272614;22;20007;-63
2022/01/09 08:48:56;;;;;;;10.27;2.78;;;;;;;;;;6273203;22;20000;-63
2022/01/09 08:51:23;;;;;;;9.40;3.03;;;;;;;;;;6271914;22;20003;-64
2022/01/09 08:53:52;;;;;;;11.13;3.60;;;;;;;;;;6273094;22;20059;-63
2022/01/09 08:56:21;;;;;;;6.47;2.72;;;;;;;;;;6271431;22;20334;-64
2022/01/09 08:58:47;;;;;;;11.38;2.88;;;;;;;;;;6271618;22;20012;-64
2022/01/09 09:01:13;;;;;;;7.35;2.45;;;;;;;;;;6271872;22;20014;-64
2022/01/09 09:03:42;;;;;;;12.95;3.90;;;;;;;;;;6271390;22;20334;-64
2022/01/09 09:06:10;;;;;;;10.35;2.88;;;;;;;;;;6271582;22;20369;-63
2022/01/09 09:08:36;;;;;;;10.80;3.30;;;;;;;;;;6272616;22;20660;-62
2022/01/09 09:11:02;;;;;;;7.28;2.65;;;;;;;;;;6271250;22;20007;-64
2022/01/09 09:13:28;;;;;;;9.85;2.70;;;;;;;;;;6272971;22;19996;-63
2022/01/09 09:15:55;;;;;;;8.25;3.60;;;;;;;;;;6271061;22;20304;-64
2022/01/09 09:18:21;;;;;;;14.85;3.75;;;;;;;;;;6271766;22;20003;-65
2022/01/09 09:20:47;;;;;;;10.38;3.00;;;;;;;;;;6272579;22;20000;-63
2022/01/09 09:23:13;;;;;;;9.20;2.78;;;;;;;;;;6271803;22;20093;-65
2022/01/09 09:25:39;;;;;;;11.40;3.05;;;;;;;;;;6272852;22;20054;-64
2022/01/09 09:28:05;;;;;;;8.07;2.95;;;;;;;;;;6271880;22;20018;-64
2022/01/09 09:30:31;;;;;;;9.95;3.38;;;;;;;;;;6270306;22;20433;-64
2022/01/09 09:32:57;;;;;;;11.48;2.78;;;;;;;;;;6272289;22;20031;-64
2022/01/09 09:35:23;;;;;;;10.85;2.97;;;;;;;;;;6272283;22;20054;-64
2022/01/09 09:37:50;;;;;;;15.57;4.78;;;;;;;;;;6272010;22;20047;-64
2022/01/09 09:40:16;;;;;;;14.05;4.20;;;;;;;;;;6271838;22;20003;-65
2022/01/09 09:42:42;;;;;;;11.32;2.92;;;;;;;;;;6271900;22;20008;-63
2022/01/09 09:45:09;;;;;;;7.18;3.38;;;;;;;;;;6270369;22;20011;-63
2022/01/09 09:47:39;;;;;;;10.98;3.22;;;;;;;;;;6273114;22;20022;-63
2022/01/09 09:50:07;;;;;;;7.78;2.88;;;;;;;;;;6272464;22;20002;-64
2022/01/09 09:52:33;;;;;;;9.82;3.20;;;;;;;;;;6272354;22;20028;-64
2022/01/09 09:55:00;;;;;;;8.80;2.85;;;;;;;;;;6272280;22;20000;-64
2022/01/09 09:57:26;;;;;;;12.40;3.50;;;;;;;;;;6272888;22;20007;-64
2022/01/09 10:00:02;;;;;;;5.65;2.85;;;;;;;;;;6272124;22;20003;-63
2022/01/09 10:02:39;;;;;;;7.20;2.90;;;;;;;;;;6272276;22;19999;-64
2022/01/09 10:05:06;;;;;;;14.60;4.22;;;;;;;;;;6272306;22;19999;-64
2022/01/09 10:07:33;;;;;;;8.45;3.95;;;;;;;;;;6272661;22;20011;-64
2022/01/09 10:10:01;;;;;;;10.95;3.10;;;;;;;;;;6272252;22;20004;-63
2022/01/09 10:12:28;;;;;;;7.72;3.45;;;;;;;;;;6270335;22;20000;-64
2022/01/09 10:14:59;;;;;;;10.50;3.25;;;;;;;;;;6272649;22;20000;-63
2022/01/09 10:17:26;;;;;;;9.80;3.72;;;;;;;;;;6272775;22;20011;-63
2022/01/09 10:19:54;;;;;;;10.02;4.35;;;;;;;;;;6272619;22;20061;-64
2022/01/09 10:22:24;;;;;;;12.15;3.30;;;;;;;;;;6273152;22;20090;-66
2022/01/09 10:24:51;;;;;;;11.40;2.75;;;;;;;;;;6272811;22;19999;-64
2022/01/09 10:27:29;;;;;;;13.90;5.18;;;;;;;;;;6272013;22;20012;-64
2022/01/09 10:29:55;;;;;;;12.32;3.65;;;;;;;;;;6272302;22;20034;-65
2022/01/09 10:32:25;;;;;;;10.63;3.58;;;;;;;;;;6272383;22;20423;-64
2022/01/09 10:35:09;;;;;;;9.98;3.03;;;;;;;;;;6272263;22;20000;-64
2022/01/09 10:37:36;;;;;;;10.77;3.90;;;;;;;;;;6271936;22;20004;-64
2022/01/09 10:40:05;;;;;;;11.43;3.15;;;;;;;;;;6272782;22;20008;-64
2022/01/09 10:42:31;;;;;;;10.90;3.70;;;;;;;;;;6274115;22;20004;-64
2022/01/09 10:45:14;;;;;;;7.65;2.90;;;;;;;;;;6273068;22;20438;-64
2022/01/09 10:47:41;;;;;;;9.25;3.00;;;;;;;;;;6273011;22;20004;-64
2022/01/09 10:50:08;;;;;;;17.90;3.63;;;;;;;;;;6275033;22;20003;-65
2022/01/09 10:52:38;;;;;;;6.45;3.15;;;;;;;;;;6273100;22;20003;-65
2022/01/09 10:55:06;;;;;;;12.52;3.50;;;;;;;;;;6272522;22;19996;-64
2022/01/09 10:57:34;;;;;;;7.78;2.90;;;;;;;;;;6271330;22;20007;-65
2022/01/09 11:00:10;;;;;;;5.88;2.83;;;;;;;;;;6272173;22;20008;-64
2022/01/09 11:02:36;;;;;;;11.30;3.65;;;;;;;;;;6272688;22;20439;-65
2022/01/09 11:05:02;;;;;;;6.30;2.88;;;;;;;;;;6273473;22;20366;-63
2022/01/09 11:07:28;;;;;;;3.42;2.80;;;;;;;;;;6272091;22;20084;-65
2022/01/09 11:09:56;;;;;;;11.65;3.65;;;;;;;;;;6272401;22;20069;-64
2022/01/09 11:12:23;;;;;;;12.43;3.30;;;;;;;;;;6271785;22;20007;-65
2022/01/09 11:14:51;;;;;;;10.10;4.60;;;;;;;;;;6272608;22;20304;-64
2022/01/09 11:17:18;;;;;;;10.07;4.60;;;;;;;;;;6273893;22;20338;-64
2022/01/09 11:19:44;;;;;;;11.38;4.13;;;;;;;;;;6274793;22;20038;-64
2022/01/09 11:22:13;;;;;;;12.10;4.60;;;;;;;;;;6275326;22;20015;-65
2022/01/09 11:24:54;;;;;;;19.35;7.85;;;;;;;;;;6271831;22;20008;-64
2022/01/09 11:27:27;;;;;;;15.13;6.40;;;;;;;;;;6267702;22;19999;-64
2022/01/09 11:30:09;;;;;;;16.83;6.43;;;;;;;;;;6266905;22;20379;-63
2022/01/09 11:32:39;;;;;;;14.93;5.38;;;;;;;;;;6264031;22;20010;-69
2022/01/09 11:35:13;;;;;;;17.35;6.22;;;;;;;;;;6266603;22;20008;-64
2022/01/09 11:37:47;;;;;;;18.20;6.90;;;;;;;;;;6266889;22;20402;-63
2022/01/09 11:40:26;;;;;;;30.50;7.32;;;;;;;;;;6267667;22;20637;-63
2022/01/09 11:43:00;;;;;;;17.20;5.10;;;;;;;;;;6268068;22;20038;-66
2022/01/09 11:45:46;;;;;;;11.75;4.35;;;;;;;;;;6267893;22;20015;-66
2022/01/09 11:48:12;;;;;;;7.07;3.58;;;;;;;;;;6267816;22;20031;-65
2022/01/09 11:50:57;;;;;;;10.82;4.82;;;;;;;;;;6268226;22;20138;-63
2022/01/09 11:53:24;;;;;;;15.73;6.25;;;;;;;;;;6268811;22;20042;-64
2022/01/09 11:55:50;;;;;;;17.95;4.78;;;;;;;;;;6269472;22;20520;-64
2022/01/09 11:58:20;;;;;;;9.63;4.38;;;;;;;;;;6268506;22;20014;-64
2022/01/09 12:00:47;;;;;;;14.57;4.43;;;;;;;;;;6267917;22;20350;-64
2022/01/09 12:03:28;;;;;;;12.90;4.47;;;;;;;;;;6267796;22;20004;-64
2022/01/09 12:06:10;;;;;;;11.43;5.00;;;;;;;;;;6267596;22;20033;-63
2022/01/09 12:08:57;;;;;;;11.20;4.53;;;;;;;;;;6267674;22;20347;-65
2022/01/09 12:11:42;;;;;;;24.73;8.77;;;;;;;;;;6273963;22;20003;-67
2022/01/09 12:14:08;;;;;;;29.85;13.73;;;;;;;;;;6256331;22;20050;-64
2022/01/09 12:16:53;;;;;;;28.38;11.77;;;;;;;;;;6256492;22;20149;-66
2022/01/09 12:19:41;;;;;;;43.22;18.80;;;;;;;;;;6261651;22;20008;-66
2022/01/09 12:22:09;;;;;;;15.95;8.10;;;;;;;;;;6260398;22;20693;-65
2022/01/09 12:24:40;;;;;;;22.17;10.23;;;;;;;;;;6260969;22;20035;-65
2022/01/09 12:27:25;;;;;;;16.20;7.20;;;;;;;;;;6258286;22;20025;-65
2022/01/09 12:29:51;;;;;;;19.25;7.18;;;;;;;;;;6261112;22;20044;-66
2022/01/09 12:32:36;;;;;;;14.80;6.05;;;;;;;;;;6266156;22;20011;-64
2022/01/09 12:35:19;;;;;;;14.18;5.40;;;;;;;;;;6266845;22;20003;-65
2022/01/09 12:37:47;;;;;;;13.77;6.40;;;;;;;;;;6267182;22;20008;-65
2022/01/09 12:40:17;;;;;;;16.67;8.68;;;;;;;;;;6266778;22;20042;-65
2022/01/09 12:42:50;;;;;;;13.18;7.05;;;;;;;;;;6267877;22;20004;-64
2022/01/09 12:45:20;;;;;;;16.65;7.60;;;;;;;;;;6267567;22;20088;-65
2022/01/09 12:47:47;;;;;;;21.48;6.55;;;;;;;;;;6267582;22;20018;-65
2022/01/09 12:50:13;;;;;;;13.75;6.30;;;;;;;;;;6267126;22;19999;-65
2022/01/09 12:52:39;;;;;;;19.50;6.78;;;;;;;;;;6268017;22;20529;-64
2022/01/09 12:55:10;;;;;;;12.70;4.85;;;;;;;;;;6266186;22;20438;-69
2022/01/09 12:57:51;;;;;;;14.27;5.15;;;;;;;;;;6266778;22;20014;-64
2022/01/09 13:00:25;;;;;;;14.70;5.90;;;;;;;;;;6265770;22;20841;-64
2022/01/09 13:02:52;;;;;;;21.02;11.70;;;;;;;;;;6270211;22;20077;-66
2022/01/09 13:05:25;;;;;;;13.38;5.45;;;;;;;;;;6263829;22;20350;-65
2022/01/09 13:08:01;;;;;;;15.23;6.10;;;;;;;;;;6267642;22;20752;-64
2022/01/09 13:10:31;;;;;;;9.20;5.53;;;;;;;;;;6264348;22;20015;-64
2022/01/09 13:13:04;;;;;;;18.45;7.10;;;;;;;;;;6266606;22;20082;-64
2022/01/09 13:15:40;;;;;;;13.20;5.80;;;;;;;;;;6262259;22;20008;-65
2022/01/09 13:18:07;;;;;;;9.05;4.38;;;;;;;;;;6268204;22;20549;-66
2022/01/09 13:20:36;;;;;;;10.68;4.95;;;;;;;;;;6265249;22;20434;-65
2022/01/09 13:23:06;;;;;;;11.57;4.50;;;;;;;;;;6265855;22;20015;-65
2022/01/09 13:25:46;;;;;;;12.05;5.53;;;;;;;;;;6266254;22;20517;-65
2022/01/09 13:28:22;;;;;;;15.35;6.80;;;;;;;;;;6267181;22;20015;-64
2022/01/09 13:30:48;;;;;;;18.42;6.50;;;;;;;;;;6267425;22;20000;-66
2022/01/09 13:33:15;;;;;;;9.77;4.20;;;;;;;;;;6268298;22;20053;-65
2022/01/09 13:35:41;;;;;;;19.75;6.82;;;;;;;;;;6266302;22;20311;-67
2022/01/09 13:38:08;;;;;;;15.25;6.10;;;;;;;;;;6267180;22;20012;-67
2022/01/09 13:40:34;;;;;;;15.43;5.55;;;;;;;;;;6266054;22;20008;-66
2022/01/09 13:43:01;;;;;;;15.90;5.82;;;;;;;;;;6266405;22;20636;-65
2022/01/09 13:45:33;;;;;;;15.48;6.47;;;;;;;;;;6265483;22;20545;-64
2022/01/09 13:47:59;;;;;;;15.63;4.75;;;;;;;;;;6266610;22;20008;-65
2022/01/09 13:50:33;;;;;;;14.02;6.82;;;;;;;;;;6264532;22;20011;-64
2022/01/09 13:53:10;;;;;;;21.75;7.90;;;;;;;;;;6264931;22;20420;-65
2022/01/09 13:55:37;;;;;;;20.25;8.00;;;;;;;;;;6265446;22;20313;-65
2022/01/09 13:58:06;;;;;;;23.38;7.88;;;;;;;;;;6266699;22;20676;-66
2022/01/09 14:00:34;;;;;;;14.55;6.55;;;;;;;;;;6266353;22;20010;-64
2022/01/09 14:03:02;;;;;;;15.38;6.38;;;;;;;;;;6266669;22;20004;-65
2022/01/09 14:05:34;;;;;;;16.05;5.70;;;;;;;;;;6265242;22;20007;-65
2022/01/09 14:08:00;;;;;;;20.40;8.65;;;;;;;;;;6267040;22;20021;-65
2022/01/09 14:11:01;;;;;;;11.32;5.22;;;;;;;;;;6264783;22;20000;-65
2022/01/09 14:13:28;;;;;;;19.13;8.52;;;;;;;;;;6268261;22;20004;-66
2022/01/09 14:16:08;;;;;;;18.67;7.78;;;;;;;;;;6266394;22;20312;-65
2022/01/09 14:18:34;;;;;;;28.17;11.88;;;;;;;;;;6266484;22;20449;-65
2022/01/09 14:21:01;;;;;;;18.75;9.65;;;;;;;;;;6263786;22;20038;-65
2022/01/09 14:23:31;;;;;;;23.58;10.50;;;;;;;;;;6266163;22;20062;-65
2022/01/09 14:26:04;;;;;;;26.52;10.88;;;;;;;;;;6266416;22;20014;-65
2022/01/09 14:28:30;;;;;;;29.80;12.93;;;;;;;;;;6265208;22;20015;-65
2022/01/09 14:31:04;;;;;;;16.85;6.28;;;;;;;;;;6266255;22;20030;-65
2022/01/09 14:33:31;;;;;;;30.52;14.10;;;;;;;;;;6267975;22;20003;-69
2022/01/09 14:36:11;;;;;;;29.10;13.85;;;;;;;;;;6266928;22;19995;-66
2022/01/09 14:38:56;;;;;;;25.63;10.18;;;;;;;;;;6265427;22;20004;-66
2022/01/09 14:41:30;;;;;;;25.55;8.48;;;;;;;;;;6267250;22;20065;-65